createdAt,value
2023-01-30T00:00:10.827Z,0.2
2023-01-30T00:01:16.968Z,0.2
2023-01-30T00:02:14.805Z,0.2
2023-01-30T00:03:15.044Z,0.2
2023-01-30T00:04:17.210Z,0.3
2023-01-30T00:05:16.103Z,0.2
2023-01-30T00:06:17.215Z,0.2
2023-01-30T00:07:16.389Z,0.2
2023-01-30T00:08:17.322Z,0.3
2023-01-30T00:09:17.330Z,0.3
2023-01-30T00:10:18.318Z,0.2
2023-01-30T00:11:19.505Z,0.2
2023-01-30T00:12:18.166Z,0.2
2023-01-30T00:13:18.800Z,0.2
2023-01-30T00:14:19.013Z,0.3
2023-01-30T00:15:19.005Z,0.3
2023-01-30T00:16:19.666Z,0.3
2023-01-30T00:17:19.741Z,0.2
2023-01-30T00:18:20.166Z,0.2
2023-01-30T00:19:20.674Z,0.4
2023-01-30T00:20:21.206Z,0.2
2023-01-30T00:21:21.502Z,0.2
2023-01-30T00:22:21.518Z,0.3
2023-01-30T00:23:21.836Z,0.2
2023-01-30T00:24:22.370Z,0.2
2023-01-30T00:25:22.781Z,0.2
2023-01-30T00:26:23.001Z,0.2
2023-01-30T00:27:23.075Z,0.2
2023-01-30T00:28:24.311Z,0.2
2023-01-30T00:29:24.329Z,0.2
2023-01-30T00:30:24.487Z,0.2
2023-01-30T00:31:24.563Z,0.6
2023-01-30T00:32:25.263Z,0.5
2023-01-30T00:33:28.033Z,1.5
2023-01-30T00:34:26.122Z,0.3
2023-01-30T00:35:26.926Z,0.4
2023-01-30T00:36:26.727Z,0.2
2023-01-30T00:37:26.828Z,0.1
2023-01-30T00:38:27.154Z,0.2
2023-01-30T00:39:27.875Z,0.2
2023-01-30T00:40:29.818Z,0.3
2023-01-30T00:41:28.295Z,0.3
2023-01-30T00:42:28.497Z,0.2
2023-01-30T00:43:29.043Z,0.2
2023-01-30T00:44:29.230Z,0.2
2023-01-30T00:45:29.596Z,0.2
2023-01-30T00:46:34.582Z,0.2
2023-01-30T00:47:32.533Z,0.3
2023-01-30T00:48:33.047Z,0.2
2023-01-30T00:49:33.281Z,0.3
2023-01-30T00:50:33.677Z,0.2
2023-01-30T00:51:33.682Z,0.2
2023-01-30T00:52:34.316Z,0.3
2023-01-30T00:53:34.633Z,0.2
2023-01-30T00:54:35.145Z,0.3
2023-01-30T00:55:35.039Z,0.2
2023-01-30T00:56:35.885Z,0.5
2023-01-30T00:57:35.971Z,0.7
2023-01-30T00:58:37.020Z,1.6
2023-01-30T00:59:36.819Z,0.5
2023-01-30T01:00:37.468Z,0.5
2023-01-30T01:01:37.063Z,0.2
2023-01-30T01:02:37.497Z,0.3
2023-01-30T01:03:38.061Z,0.2
2023-01-30T01:04:38.482Z,0.2
2023-01-30T01:05:38.503Z,0.1
2023-01-30T01:06:39.416Z,0.2
2023-01-30T01:07:39.008Z,0.2
2023-01-30T01:08:39.732Z,0.1
2023-01-30T01:09:40.156Z,0.2
2023-01-30T01:10:40.360Z,0.2
2023-01-30T01:11:40.678Z,0.2
2023-01-30T01:12:40.861Z,0.2
2023-01-30T01:13:41.200Z,0.1
2023-01-30T01:14:41.614Z,0.2
2023-01-30T01:15:41.905Z,0.2
2023-01-30T01:16:42.393Z,0.2
2023-01-30T01:17:42.762Z,0.1
2023-01-30T01:18:43.188Z,0.2
2023-01-30T01:19:43.505Z,0.3
2023-01-30T01:20:43.709Z,0.2
2023-01-30T01:21:43.922Z,0.2
2023-01-30T01:22:44.338Z,0.3
2023-01-30T01:23:45.366Z,0.2
2023-01-30T01:24:45.060Z,0.2
2023-01-30T01:25:46.297Z,0.2
2023-01-30T01:26:45.843Z,0.2
2023-01-30T01:27:46.615Z,0.2
2023-01-30T01:28:46.731Z,0.2
2023-01-30T01:29:47.244Z,0.2
2023-01-30T01:30:47.283Z,0.2
2023-01-30T01:31:47.307Z,0.2
2023-01-30T01:32:47.571Z,0.2
2023-01-30T01:33:47.897Z,0.2
2023-01-30T01:34:48.406Z,0.1
2023-01-30T01:35:48.818Z,0.2
2023-01-30T01:36:53.880Z,0.2
2023-01-30T01:37:55.283Z,0.2
2023-01-30T01:38:53.262Z,0.2
2023-01-30T01:39:53.459Z,0.2
2023-01-30T01:40:53.772Z,0.2
2023-01-30T01:41:54.085Z,0.2
2023-01-30T01:42:54.501Z,0.2
2023-01-30T01:47:02.011Z,0.2
2023-01-30T01:51:18.103Z,0.4
2023-01-30T01:52:17.899Z,0.2
2023-01-30T01:53:20.064Z,0.2
2023-01-30T01:55:23.966Z,0.2
2023-01-30T01:56:22.642Z,0.1
2023-01-30T01:57:30.537Z,0.2
2023-01-30T01:58:36.181Z,0.2
2023-01-30T01:59:33.949Z,0.1
2023-01-30T02:00:27.389Z,0.2
2023-01-30T02:01:28.165Z,0.4
2023-01-30T02:02:27.694Z,0.4
2023-01-30T02:03:30.787Z,0.2
2023-01-30T02:04:30.604Z,0.2
2023-01-30T02:05:35.604Z,0.2
2023-01-30T02:06:33.564Z,0.2
2023-01-30T02:08:44.326Z,0.3
2023-01-30T02:09:37.987Z,0.3
2023-01-30T02:12:41.687Z,0.2
2023-01-30T02:13:40.885Z,0.3
2023-01-30T02:14:41.808Z,0.2
2023-01-30T02:15:41.407Z,0.2
2023-01-30T02:16:44.620Z,0.2
2023-01-30T02:17:42.471Z,0.1
2023-01-30T02:18:45.314Z,0.2
2023-01-30T02:51:03.037Z,0.4
2023-01-30T02:51:58.484Z,0.3
2023-01-30T02:52:56.915Z,0.2
2023-01-30T02:53:56.809Z,0.2
2023-01-30T02:54:56.918Z,0.1
2023-01-30T02:55:57.545Z,0.2
2023-01-30T02:57:01.346Z,0.2
2023-01-30T02:57:59.194Z,0.2
2023-01-30T02:59:05.445Z,0.2
2023-01-30T03:00:07.021Z,0.2
2023-01-30T03:15:54.461Z,0.2
2023-01-30T03:16:50.917Z,0.2
2023-01-30T03:17:48.875Z,0.2
2023-01-30T03:18:50.115Z,0.2
2023-01-30T03:19:50.119Z,0.2
2023-01-30T03:20:50.099Z,0.2
2023-01-30T03:21:50.136Z,0.2
2023-01-30T03:22:50.463Z,0.1
2023-01-30T03:23:50.962Z,0.2
2023-01-30T03:24:54.277Z,0.2
2023-01-30T03:25:52.372Z,0.2
2023-01-30T03:27:06.167Z,0.2
2023-01-30T03:27:55.901Z,0.2
2023-01-30T03:28:55.097Z,0.2
2023-01-30T03:29:55.302Z,0.1
2023-01-30T03:30:55.177Z,0.2
2023-01-30T03:31:55.363Z,0.2
2023-01-30T03:32:55.844Z,0.2
2023-01-30T03:33:56.253Z,0.2
2023-01-30T03:34:56.437Z,0.2
2023-01-30T03:35:57.201Z,0.2
2023-01-30T03:36:57.836Z,0.2
2023-01-30T03:37:59.059Z,0.2
2023-01-30T03:38:57.933Z,0.2
2023-01-30T03:39:59.190Z,0.2
2023-01-30T03:40:58.760Z,0.2
2023-01-30T03:41:59.074Z,0.2
2023-01-30T03:42:59.210Z,0.4
2023-01-30T03:43:59.824Z,0.2
2023-01-30T03:45:00.148Z,0.2
2023-01-30T03:46:00.449Z,0.2
2023-01-30T03:47:00.451Z,0.2
2023-01-30T03:48:01.058Z,0.2
2023-01-30T03:49:01.325Z,0.2
2023-01-30T03:50:01.801Z,0.4
2023-01-30T03:51:02.037Z,0.5
2023-01-30T03:52:02.520Z,0.2
2023-01-30T03:53:02.523Z,0.2
2023-01-30T03:54:03.244Z,0.2
2023-01-30T03:55:03.672Z,0.1
2023-01-30T03:56:03.860Z,0.2
2023-01-30T03:57:04.094Z,0.2
2023-01-30T03:58:04.308Z,0.3
2023-01-30T03:59:04.824Z,0.3
2023-01-30T04:00:06.471Z,0.2
2023-01-30T04:01:06.081Z,0.2
2023-01-30T04:02:05.721Z,0.3
2023-01-30T04:03:05.883Z,0.2
2023-01-30T04:04:06.389Z,0.5
2023-01-30T04:05:07.415Z,0.3
2023-01-30T04:06:07.629Z,1.6
2023-01-30T04:07:07.323Z,0.4
2023-01-30T04:08:07.613Z,0.4
2023-01-30T04:09:07.852Z,0.3
2023-01-30T04:10:09.292Z,0.1
2023-01-30T04:11:08.995Z,0.1
2023-01-30T04:12:09.095Z,0.2
2023-01-30T04:13:09.311Z,0.2
2023-01-30T04:14:09.843Z,0.2
2023-01-30T04:15:11.379Z,0.2
2023-01-30T04:17:15.184Z,0.2
2023-01-30T04:18:15.700Z,0.6
2023-01-30T04:19:15.806Z,0.4
2023-01-30T04:20:16.838Z,0.2
2023-01-30T04:21:16.843Z,0.2
2023-01-30T04:22:16.991Z,0.2
2023-01-30T04:23:17.020Z,0.2
2023-01-30T04:24:17.582Z,0.2
2023-01-30T04:25:18.050Z,0.3
2023-01-30T04:26:18.245Z,0.2
2023-01-30T04:27:18.625Z,0.2
2023-01-30T04:28:19.031Z,0.3
2023-01-30T04:29:19.040Z,0.3
2023-01-30T04:30:20.114Z,0.7
2023-01-30T04:31:19.929Z,0.3
2023-01-30T04:32:20.314Z,0.3
2023-01-30T04:33:21.428Z,1.4
2023-01-30T04:34:21.030Z,0.3
2023-01-30T04:35:21.236Z,0.4
2023-01-30T04:36:21.551Z,0.3
2023-01-30T04:37:23.398Z,0.3
2023-01-30T04:38:23.199Z,0.2
2023-01-30T04:39:22.704Z,0.2
2023-01-30T04:40:23.029Z,0.2
2023-01-30T04:41:23.572Z,0.2
2023-01-30T04:42:23.554Z,0.1
2023-01-30T04:43:26.108Z,0.4
2023-01-30T04:44:24.570Z,0.4
2023-01-30T04:45:24.596Z,0.7
2023-01-30T04:46:25.309Z,0.2
2023-01-30T04:47:25.568Z,0.2
2023-01-30T04:48:25.824Z,0.2
2023-01-30T04:49:26.244Z,0.3
2023-01-30T04:50:26.149Z,0.2
2023-01-30T04:51:26.775Z,0.3
2023-01-30T04:52:27.030Z,1.3
2023-01-30T04:53:27.161Z,0.3
2023-01-30T04:54:27.608Z,0.3
2023-01-30T04:55:28.129Z,0.3
2023-01-30T04:56:28.650Z,0.2
2023-01-30T04:57:28.860Z,0.2
2023-01-30T04:58:29.276Z,0.3
2023-01-30T04:59:29.290Z,0.5
2023-01-30T05:00:30.476Z,0.5
2023-01-30T05:01:36.326Z,1.7
2023-01-30T05:02:34.218Z,0.2
2023-01-30T05:03:34.728Z,0.2
2023-01-30T05:04:34.949Z,0.2
2023-01-30T05:05:35.354Z,0.4
2023-01-30T05:06:36.339Z,0.2
2023-01-30T05:07:35.989Z,0.2
2023-01-30T05:08:36.308Z,0.2
2023-01-30T05:09:36.621Z,0.2
2023-01-30T05:10:36.937Z,0.2
2023-01-30T05:11:37.484Z,0.2
2023-01-30T05:12:37.975Z,0.2
2023-01-30T05:13:38.280Z,0.2
2023-01-30T05:14:38.348Z,0.2
2023-01-30T05:15:39.942Z,0.3
2023-01-30T05:16:39.009Z,0.2
2023-01-30T05:17:40.024Z,0.2
2023-01-30T05:18:39.760Z,0.2
2023-01-30T05:19:40.164Z,0.3
2023-01-30T05:20:40.267Z,0.5
2023-01-30T05:21:40.787Z,0.2
2023-01-30T05:22:41.114Z,0.3
2023-01-30T05:23:42.030Z,0.2
2023-01-30T05:24:42.042Z,0.2
2023-01-30T05:25:42.141Z,0.3
2023-01-30T05:26:42.450Z,0.2
2023-01-30T05:27:42.980Z,0.3
2023-01-30T05:28:43.504Z,0.2
2023-01-30T05:29:43.721Z,0.2
2023-01-30T05:30:45.187Z,0.2
2023-01-30T05:31:44.355Z,0.2
2023-01-30T05:32:44.678Z,1.2
2023-01-30T05:33:47.938Z,0.3
2023-01-30T05:34:46.224Z,0.3
2023-01-30T05:35:50.431Z,0.3
2023-01-30T05:36:48.524Z,0.4
2023-01-30T05:37:52.779Z,0.2
2023-01-30T05:38:50.742Z,0.4
2023-01-30T05:39:51.041Z,0.3
2023-01-30T05:41:53.712Z,0.4
2023-01-30T05:42:54.755Z,0.4
2023-01-30T05:43:54.659Z,0.2
2023-01-30T05:44:54.624Z,0.3
2023-01-30T05:45:56.210Z,1.2
2023-01-30T05:46:55.828Z,0.6
2023-01-30T05:48:00.597Z,0.3
2023-01-30T05:48:59.088Z,0.3
2023-01-30T05:49:59.301Z,0.3
2023-01-30T05:51:00.537Z,0.2
2023-01-30T05:52:00.038Z,0.3
2023-01-30T05:53:00.660Z,0.3
2023-01-30T05:54:00.974Z,0.2
2023-01-30T05:55:01.016Z,0.3
2023-01-30T05:56:06.214Z,0.3
2023-01-30T05:57:04.673Z,0.4
2023-01-30T05:58:04.695Z,0.3
2023-01-30T05:59:04.894Z,0.2
2023-01-30T06:00:07.046Z,0.2
2023-01-30T06:01:08.284Z,0.3
2023-01-30T06:02:05.943Z,0.2
2023-01-30T06:03:06.458Z,0.2
2023-01-30T06:04:06.924Z,0.2
2023-01-30T06:05:07.607Z,0.3
2023-01-30T06:06:08.392Z,0.2
2023-01-30T06:07:07.935Z,0.2
2023-01-30T06:08:08.231Z,0.4
2023-01-30T06:09:10.917Z,0.2
2023-01-30T06:10:09.729Z,0.2
2023-01-30T06:11:15.430Z,0.3
2023-01-30T06:12:13.201Z,0.2
2023-01-30T06:13:13.812Z,0.2
2023-01-30T06:14:13.987Z,0.3
2023-01-30T06:15:14.331Z,0.3
2023-01-30T06:16:16.511Z,0.4
2023-01-30T06:17:14.798Z,0.3
2023-01-30T06:18:15.373Z,0.3
2023-01-30T06:19:15.484Z,0.6
2023-01-30T06:20:16.206Z,0.2
2023-01-30T06:21:16.936Z,0.2
2023-01-30T06:22:16.719Z,0.3
2023-01-30T06:23:17.480Z,0.2
2023-01-30T06:24:17.349Z,0.2
2023-01-30T06:25:18.497Z,0.2
2023-01-30T06:26:18.050Z,0.2
2023-01-30T06:27:18.508Z,0.3
2023-01-30T06:28:19.629Z,0.2
2023-01-30T06:29:18.809Z,0.2
2023-01-30T06:30:19.615Z,0.3
2023-01-30T06:31:19.687Z,0.6
2023-01-30T06:32:19.855Z,0.3
2023-01-30T06:33:20.688Z,0.3
2023-01-30T06:34:20.693Z,0.2
2023-01-30T06:35:21.300Z,0.3
2023-01-30T06:36:21.258Z,0.2
2023-01-30T06:37:21.838Z,0.2
2023-01-30T06:38:22.367Z,0.2
2023-01-30T06:39:22.255Z,0.2
2023-01-30T06:40:22.619Z,0.2
2023-01-30T06:41:23.092Z,0.3
2023-01-30T06:42:23.433Z,0.3
2023-01-30T06:43:23.644Z,0.3
2023-01-30T06:44:24.550Z,0.3
2023-01-30T06:45:24.647Z,0.3
2023-01-30T06:46:25.056Z,0.3
2023-01-30T06:47:25.284Z,0.3
2023-01-30T06:48:25.394Z,0.3
2023-01-30T06:49:25.817Z,0.2
2023-01-30T06:50:27.857Z,0.2
2023-01-30T06:51:26.572Z,0.5
2023-01-30T06:52:26.854Z,0.3
2023-01-30T06:53:27.167Z,0.3
2023-01-30T06:54:27.375Z,1.3
2023-01-30T06:55:27.691Z,0.7
2023-01-30T06:56:28.217Z,0.3
2023-01-30T06:57:28.633Z,0.3
2023-01-30T06:58:29.149Z,0.3
2023-01-30T06:59:29.261Z,0.3
2023-01-30T07:00:29.812Z,0.3
2023-01-30T07:01:30.292Z,0.3
2023-01-30T07:02:31.329Z,1.3
2023-01-30T07:03:30.502Z,1.4
2023-01-30T07:04:30.953Z,1.2
2023-01-30T07:05:31.348Z,0.5
2023-01-30T07:06:31.871Z,0.9
2023-01-30T07:07:32.568Z,1.9
2023-01-30T07:08:32.381Z,1
2023-01-30T07:09:32.814Z,0.7
2023-01-30T07:10:32.936Z,0.8
2023-01-30T07:11:33.227Z,1.5
2023-01-30T07:12:34.476Z,0.9
2023-01-30T07:13:34.067Z,0.3
2023-01-30T07:14:34.170Z,0.3
2023-01-30T07:15:34.538Z,0.2
2023-01-30T07:16:35.126Z,0.3
2023-01-30T07:17:35.399Z,0.9
2023-01-30T07:18:35.727Z,0.9
2023-01-30T07:19:36.043Z,0.4
2023-01-30T07:20:36.249Z,0.2
2023-01-30T07:21:36.563Z,0.3
2023-01-30T07:22:36.883Z,0.3
2023-01-30T07:23:37.188Z,0.2
2023-01-30T07:24:37.919Z,0.3
2023-01-30T07:25:38.066Z,0.2
2023-01-30T07:26:38.415Z,0.2
2023-01-30T07:27:40.189Z,0.3
2023-01-30T07:28:39.072Z,0.2
2023-01-30T07:29:40.098Z,0.3
2023-01-30T07:30:40.036Z,0.3
2023-01-30T07:31:39.944Z,0.2
2023-01-30T07:32:40.328Z,0.3
2023-01-30T07:33:40.635Z,0.4
2023-01-30T07:34:40.949Z,0.2
2023-01-30T07:35:41.274Z,0.5
2023-01-30T07:36:41.582Z,0.4
2023-01-30T07:37:41.793Z,0.6
2023-01-30T07:38:43.029Z,0.7
2023-01-30T07:39:42.730Z,0.9
2023-01-30T07:40:43.135Z,0.9
2023-01-30T07:41:43.259Z,0.9
2023-01-30T07:42:43.802Z,1.1
2023-01-30T07:43:43.986Z,1.3
2023-01-30T07:44:44.501Z,1
2023-01-30T07:45:46.982Z,1.5
2023-01-30T07:46:45.004Z,1.4
2023-01-30T07:47:45.169Z,0.8
2023-01-30T07:48:46.475Z,0.7
2023-01-30T07:49:46.194Z,0.7
2023-01-30T07:50:46.727Z,1
2023-01-30T07:51:46.824Z,0.8
2023-01-30T07:52:47.107Z,0.9
2023-01-30T07:53:50.819Z,0.4
2023-01-30T07:54:48.634Z,0.9
2023-01-30T07:55:48.985Z,0.8
2023-01-30T07:56:49.490Z,0.5
2023-01-30T07:57:49.708Z,0.2
2023-01-30T07:58:55.035Z,0.5
2023-01-30T07:59:52.910Z,0.2
2023-01-30T08:00:56.120Z,0.3
2023-01-30T08:01:54.447Z,0.5
2023-01-30T08:02:54.454Z,0.2
2023-01-30T08:03:54.661Z,0.2
2023-01-30T08:04:55.241Z,0.3
2023-01-30T08:05:55.419Z,0.5
2023-01-30T08:06:55.710Z,0.7
2023-01-30T08:07:57.055Z,0.3
2023-01-30T08:08:56.333Z,1.2
2023-01-30T08:09:56.959Z,0.9
2023-01-30T08:10:57.165Z,0.8
2023-01-30T08:11:57.591Z,1
2023-01-30T08:12:57.816Z,1
2023-01-30T08:13:57.922Z,0.9
2023-01-30T08:14:58.516Z,0.4
2023-01-30T08:16:02.238Z,0.7
2023-01-30T08:17:00.272Z,0.9
2023-01-30T08:18:00.698Z,0.7
2023-01-30T08:19:01.000Z,0.5
2023-01-30T08:20:01.313Z,1.1
2023-01-30T08:21:03.278Z,0.5
2023-01-30T08:22:01.948Z,1.6
2023-01-30T08:23:02.298Z,1.2
2023-01-30T08:24:02.690Z,0.9
2023-01-30T08:25:02.900Z,1.6
2023-01-30T08:26:05.053Z,0.8
2023-01-30T08:27:03.627Z,1.1
2023-01-30T08:28:04.954Z,1
2023-01-30T08:29:04.443Z,1.5
2023-01-30T08:30:05.380Z,2.4
2023-01-30T08:31:10.395Z,1.9
2023-01-30T08:32:08.256Z,1.2
2023-01-30T08:33:08.760Z,1.8
2023-01-30T08:34:09.095Z,1.8
2023-01-30T08:35:10.936Z,0.8
2023-01-30T08:36:10.133Z,0.3
2023-01-30T08:37:10.244Z,0.3
2023-01-30T08:38:10.444Z,0.5
2023-01-30T08:39:11.798Z,1.6
2023-01-30T08:40:13.534Z,1.5
2023-01-30T08:41:11.501Z,1.3
2023-01-30T08:42:11.507Z,0.8
2023-01-30T08:43:12.731Z,0.6
2023-01-30T08:44:13.269Z,1.6
2023-01-30T08:45:13.155Z,0.6
2023-01-30T08:46:13.203Z,0.9
2023-01-30T08:47:13.583Z,0.7
2023-01-30T08:48:13.707Z,0.3
2023-01-30T08:49:14.310Z,0.3
2023-01-30T08:50:14.737Z,0.4
2023-01-30T08:51:15.439Z,0.3
2023-01-30T08:52:15.362Z,0.3
2023-01-30T08:53:15.583Z,0.4
2023-01-30T08:54:15.666Z,0.3
2023-01-30T08:55:16.401Z,0.2
2023-01-30T08:56:16.413Z,0.3
2023-01-30T08:57:16.929Z,0.3
2023-01-30T08:58:17.453Z,0.3
2023-01-30T08:59:17.653Z,0.3
2023-01-30T09:00:19.026Z,0.3
2023-01-30T09:01:18.180Z,0.4
2023-01-30T09:02:19.057Z,0.6
2023-01-30T09:03:19.318Z,0.4
2023-01-30T09:04:19.428Z,0.5
2023-01-30T09:05:19.844Z,0.6
2023-01-30T09:06:19.858Z,0.6
2023-01-30T09:07:20.266Z,0.4
2023-01-30T09:08:20.808Z,0.7
2023-01-30T09:09:20.896Z,0.5
2023-01-30T09:10:21.619Z,0.4
2023-01-30T09:11:21.737Z,0.6
2023-01-30T09:12:22.556Z,0.8
2023-01-30T09:13:22.467Z,0.4
2023-01-30T09:14:22.431Z,0.5
2023-01-30T09:15:23.286Z,0.3
2023-01-30T09:16:23.337Z,0.3
2023-01-30T09:17:24.009Z,0.3
2023-01-30T09:18:25.047Z,0.4
2023-01-30T09:19:28.539Z,0.9
2023-01-30T09:20:26.518Z,0.6
2023-01-30T09:21:26.911Z,0.5
2023-01-30T09:22:29.991Z,0.3
2023-01-30T09:23:27.702Z,0.4
2023-01-30T09:24:28.258Z,0.3
2023-01-30T09:25:28.983Z,0.3
2023-01-30T09:26:28.937Z,0.7
2023-01-30T09:27:29.414Z,0.4
2023-01-30T09:28:29.922Z,0.3
2023-01-30T09:29:30.244Z,0.4
2023-01-30T09:30:30.319Z,0.5
2023-01-30T09:31:30.865Z,0.3
2023-01-30T09:32:30.991Z,0.3
2023-01-30T09:33:31.497Z,0.4
2023-01-30T09:34:31.805Z,0.3
2023-01-30T09:35:32.032Z,0.4
2023-01-30T09:36:32.395Z,0.4
2023-01-30T09:37:32.671Z,0.4
2023-01-30T09:38:32.994Z,0.6
2023-01-30T09:39:33.291Z,0.4
2023-01-30T09:40:39.548Z,0.4
2023-01-30T09:51:21.582Z,0.4
2023-01-30T09:55:27.111Z,0.4
2023-01-30T09:56:20.593Z,0.4
2023-01-30T09:57:22.995Z,0.4
2023-01-30T09:58:23.589Z,0.5
2023-01-30T09:59:28.805Z,0.5
2023-01-30T10:00:40.788Z,0.6
2023-01-30T10:26:29.354Z,0.6
2023-01-30T10:27:31.359Z,0.4
2023-01-30T10:28:35.139Z,0.5
2023-01-30T10:29:38.934Z,0.5
2023-01-30T10:30:37.521Z,0.5
2023-01-30T10:34:48.000Z,0.5
2023-01-30T10:38:57.934Z,0.6
2023-01-30T11:06:05.707Z,0.5
2023-01-30T11:07:01.392Z,0.7
2023-01-30T11:07:59.150Z,1.1
2023-01-30T11:08:59.561Z,0.5
2023-01-30T11:10:00.899Z,0.5
2023-01-30T11:11:01.217Z,0.5
2023-01-30T11:12:00.514Z,0.4
2023-01-30T11:14:10.882Z,0.5
2023-01-30T11:15:09.950Z,0.5
2023-01-30T11:16:09.670Z,0.5
2023-01-30T11:18:41.392Z,0.5
2023-01-30T11:19:21.181Z,0.5
2023-01-30T11:20:23.107Z,0.4
2023-01-30T11:22:26.585Z,0.4
2023-01-30T11:23:31.606Z,0.4
2023-01-30T11:25:32.740Z,0.5
2023-01-30T11:26:47.076Z,0.5
2023-01-30T11:27:36.259Z,0.4
2023-01-30T11:28:46.968Z,0.3
2023-01-30T11:29:39.906Z,0.5
2023-01-30T11:30:38.060Z,0.4
2023-01-30T11:31:41.914Z,0.6
2023-01-30T11:32:40.314Z,0.7
2023-01-30T11:33:40.165Z,0.4
2023-01-30T11:34:44.026Z,0.4
2023-01-30T11:36:46.046Z,0.3
2023-01-30T11:37:46.148Z,0.6
2023-01-30T11:39:53.038Z,0.4
2023-01-30T11:40:51.082Z,0.7
2023-01-30T11:45:16.158Z,0.4
2023-01-30T11:46:01.228Z,0.4
2023-01-30T11:51:12.067Z,0.4
2023-01-30T11:52:13.390Z,0.4
2023-01-30T11:55:21.880Z,0.4
2023-01-30T11:57:22.611Z,0.8
2023-01-30T11:58:23.241Z,0.4
2023-01-30T12:00:29.738Z,0.5
2023-01-30T12:01:33.914Z,1.1
2023-01-30T12:02:34.625Z,1.1
2023-01-30T12:03:33.744Z,0.5
2023-01-30T12:04:33.109Z,0.4
2023-01-30T12:05:37.611Z,0.4
2023-01-30T12:06:38.367Z,0.9
2023-01-30T12:07:37.934Z,2.3
2023-01-30T12:08:43.090Z,0.8
2023-01-30T12:09:41.185Z,1.6
2023-01-30T12:10:44.244Z,1.9
2023-01-30T12:11:43.693Z,1.4
2023-01-30T12:12:49.746Z,2.5
2023-01-30T12:13:47.611Z,1.6
2023-01-30T12:14:49.865Z,1.7
2023-01-30T12:15:52.535Z,0.8
2023-01-30T12:21:00.872Z,0.5
2023-01-30T12:30:30.036Z,0.6
2023-01-30T12:32:28.488Z,1.7
2023-01-30T12:34:28.939Z,0.5
2023-01-30T13:26:19.798Z,0.8
2023-01-30T13:27:19.729Z,0.7
2023-01-30T13:28:21.780Z,0.5
2023-01-30T13:30:24.251Z,3
2023-01-30T13:31:26.669Z,6.4
2023-01-30T13:33:35.538Z,0.5
2023-01-30T13:35:35.869Z,0.4
2023-01-30T13:37:38.333Z,0.3
2023-01-30T13:40:44.710Z,2.3
2023-01-30T13:43:53.729Z,0.6
2023-01-30T13:44:53.407Z,0.5
2023-01-30T13:45:54.964Z,0.5
2023-01-30T13:46:55.056Z,0.5
2023-01-30T14:01:18.090Z,0.6
2023-01-30T14:02:25.580Z,1
2023-01-30T14:03:29.202Z,0.6
2023-01-30T14:09:48.266Z,0.9
2023-01-30T14:10:46.325Z,1.5
2023-01-30T14:12:54.739Z,0.8
2023-01-30T14:13:54.861Z,0.6
2023-01-30T14:16:02.126Z,0.6
2023-01-30T14:18:08.402Z,0.7
2023-01-30T14:24:23.888Z,0.7
2023-01-30T14:27:26.952Z,0.6
2023-01-30T14:35:41.778Z,0.8
2023-01-30T14:39:53.810Z,1
2023-01-30T14:43:56.784Z,0.8
2023-01-30T14:46:00.691Z,0.7
2023-01-30T14:46:59.396Z,0.7
2023-01-30T14:50:03.164Z,1.1
2023-01-30T14:52:04.417Z,0.9
2023-01-30T14:53:03.191Z,1.1
2023-01-30T14:55:06.173Z,0.9
2023-01-30T14:56:05.784Z,0.9
2023-01-30T14:58:18.514Z,1
2023-01-30T15:00:21.160Z,1.1
2023-01-30T15:01:19.143Z,1.2
2023-01-30T15:02:25.045Z,1.9
2023-01-30T15:03:23.058Z,1.3
2023-01-30T15:04:24.992Z,1.2
2023-01-30T15:05:33.493Z,0.8
2023-01-30T15:06:26.623Z,11.5
2023-01-30T15:08:31.461Z,1
2023-01-30T15:09:33.097Z,2.7
2023-01-30T15:11:36.706Z,2.8
2023-01-30T15:31:22.949Z,2.5
2023-01-30T15:32:23.237Z,2
2023-01-30T15:33:30.898Z,3.2
2023-01-30T15:34:28.552Z,2.3
2023-01-30T15:35:28.586Z,2.6
2023-01-30T15:36:32.869Z,2.4
2023-01-30T15:38:35.002Z,0.8
2023-01-30T15:39:33.196Z,1
2023-01-30T15:40:33.910Z,2.5
2023-01-30T15:42:38.755Z,2.6
2023-01-30T15:50:58.163Z,1.1
2023-01-30T15:52:58.790Z,1.2
2023-01-30T15:54:00.519Z,3.5
2023-01-30T15:55:00.861Z,4.8
2023-01-30T15:56:02.592Z,3.8
2023-01-30T15:57:01.155Z,1.5
2023-01-30T15:59:04.243Z,4.8
2023-01-30T16:00:07.419Z,3.2
2023-01-30T16:01:05.904Z,6.8
2023-01-30T16:07:17.008Z,1.9
2023-01-30T16:09:23.054Z,1
2023-01-30T16:10:29.212Z,1.4
2023-01-30T16:12:30.947Z,1.1
2023-01-30T16:13:29.748Z,1.1
2023-01-30T16:14:29.435Z,1.2
2023-01-30T16:15:42.126Z,1.2
2023-01-30T16:16:32.044Z,1
2023-01-30T16:17:32.119Z,1.3
2023-01-30T16:19:36.569Z,1
2023-01-30T16:21:40.537Z,1.1
2023-01-30T16:22:38.505Z,0.9
2023-01-30T16:23:43.931Z,0.9
2023-01-30T16:24:45.887Z,1.7
2023-01-30T16:25:47.830Z,1.1
2023-01-30T16:27:49.383Z,1
2023-01-30T16:28:50.916Z,1.4
2023-01-30T16:29:51.962Z,1.2
2023-01-30T16:30:57.080Z,0.9
2023-01-30T16:31:51.072Z,0.9
2023-01-30T16:32:52.773Z,0.8
2023-01-30T16:33:52.394Z,0.9
2023-01-30T16:34:51.385Z,1.2
2023-01-30T16:35:51.682Z,1
2023-01-30T16:36:51.687Z,1.1
2023-01-30T16:37:53.966Z,1.4
2023-01-30T16:38:53.562Z,1.3
2023-01-30T16:40:52.952Z,1
2023-01-30T16:50:27.952Z,0.8
2023-01-30T16:51:22.511Z,1.3
2023-01-30T16:53:23.466Z,1.7
2023-01-30T16:54:30.441Z,1
2023-01-30T16:55:29.939Z,1.4
2023-01-30T16:56:31.758Z,2.4
2023-01-30T16:58:37.313Z,1.5
2023-01-30T16:59:36.397Z,1.1
2023-01-30T17:01:42.073Z,1.9
2023-01-30T17:02:42.977Z,2.1
2023-01-30T17:04:42.962Z,0.8
2023-01-30T17:05:44.205Z,1.2
2023-01-30T17:06:44.001Z,1.4
2023-01-30T17:07:43.911Z,1.1
2023-01-30T17:09:49.535Z,1
2023-01-30T17:10:55.142Z,1.2
2023-01-30T17:11:53.167Z,0.9
2023-01-30T17:12:53.299Z,1.8
2023-01-30T17:17:04.971Z,1.6
2023-01-30T17:18:02.952Z,1.5
2023-01-30T17:19:03.336Z,1.8
2023-01-30T17:20:03.541Z,1
2023-01-30T17:21:03.886Z,1.1
2023-01-30T17:22:08.280Z,1.3
2023-01-30T17:23:09.334Z,2.3
2023-01-30T17:24:07.733Z,2
2023-01-30T17:26:16.093Z,2
2023-01-30T17:27:15.475Z,2.2
2023-01-30T17:28:20.184Z,4
2023-01-30T17:29:23.468Z,3.9
2023-01-30T17:30:22.144Z,4.4
2023-01-30T17:31:22.864Z,2.6
2023-01-30T17:32:22.579Z,1.6
2023-01-30T17:33:22.742Z,1.1
2023-01-30T17:34:24.120Z,1.1
2023-01-30T17:35:23.816Z,1.8
2023-01-30T17:36:29.462Z,1.6
2023-01-30T17:37:27.322Z,1.2
2023-01-30T17:38:27.420Z,1.2
2023-01-30T17:39:28.349Z,1
2023-01-30T17:41:30.414Z,1.3
2023-01-30T17:42:28.679Z,1.1
2023-01-30T17:43:29.312Z,1.4
2023-01-30T17:44:29.626Z,1.1
2023-01-30T17:45:31.153Z,1.6
2023-01-30T17:47:31.374Z,3
2023-01-30T17:48:31.382Z,1.9
2023-01-30T17:49:31.898Z,2.3
2023-01-30T17:50:32.440Z,1.5
2023-01-30T17:51:32.660Z,1.3
2023-01-30T17:52:33.048Z,2.5
2023-01-30T17:53:33.569Z,1.4
2023-01-30T17:54:33.675Z,1
2023-01-30T17:55:35.023Z,1.2
2023-01-30T17:56:37.092Z,1.5
2023-01-30T17:57:36.863Z,1.9
2023-01-30T17:58:37.083Z,5.3
2023-01-30T17:59:36.983Z,2.5
2023-01-30T18:00:38.524Z,1.1
2023-01-30T18:01:38.089Z,1.2
2023-01-30T18:02:37.985Z,1.2
2023-01-30T18:03:38.345Z,1.9
2023-01-30T18:04:39.582Z,6.7
2023-01-30T18:05:39.297Z,10.6
2023-01-30T18:06:42.566Z,3.4
2023-01-30T18:07:41.554Z,1.6
2023-01-30T18:08:41.778Z,1.8
2023-01-30T18:09:41.567Z,1.3
2023-01-30T18:10:41.466Z,2.7
2023-01-30T18:11:42.083Z,1.5
2023-01-30T18:12:42.808Z,1.5
2023-01-30T18:13:43.355Z,1.5
2023-01-30T18:14:43.251Z,1.3
2023-01-30T18:15:43.465Z,1.1
2023-01-30T18:16:44.621Z,2
2023-01-30T18:18:46.963Z,3.3
2023-01-30T18:19:47.354Z,1.6
2023-01-30T18:20:48.373Z,1.4
2023-01-30T18:21:48.002Z,1.1
2023-01-30T18:22:49.644Z,1.1
2023-01-30T18:23:50.466Z,1.4
2023-01-30T18:24:48.711Z,1.4
2023-01-30T18:25:49.442Z,1.3
2023-01-30T18:26:49.817Z,1.2
2023-01-30T18:27:49.761Z,1.1
2023-01-30T18:28:52.156Z,1.5
2023-01-30T18:29:51.091Z,1.6
2023-01-30T18:30:51.761Z,1.7
2023-01-30T18:31:52.157Z,1.4
2023-01-30T18:32:54.093Z,1.2
2023-01-30T18:33:52.988Z,1.3
2023-01-30T18:34:53.004Z,1.3
2023-01-30T18:35:53.726Z,1.4
2023-01-30T18:36:55.070Z,1.5
2023-01-30T18:37:57.629Z,1.3
2023-01-30T18:38:59.223Z,1.8
2023-01-30T18:39:59.367Z,1.4
2023-01-30T18:40:59.886Z,1.3
2023-01-30T18:42:00.514Z,1.6
2023-01-30T18:43:00.629Z,1.4
2023-01-30T18:44:03.088Z,1.2
2023-01-30T18:45:01.762Z,2.2
2023-01-30T18:47:05.862Z,2.1
2023-01-30T18:48:07.917Z,2.1
2023-01-30T18:49:06.597Z,1.9
2023-01-30T18:50:07.524Z,1.3
2023-01-30T18:52:10.622Z,1.2
2023-01-30T18:53:11.126Z,1.4
2023-01-30T18:54:11.434Z,2.1
2023-01-30T18:55:11.617Z,1.6
2023-01-30T18:56:14.319Z,1.1
2023-01-30T18:57:12.274Z,1.3
2023-01-30T18:58:13.262Z,1.3
2023-01-30T18:59:13.232Z,1.1
2023-01-30T19:00:16.402Z,1.4
2023-01-30T19:01:17.966Z,1.2
2023-01-30T19:02:15.733Z,1.6
2023-01-30T19:03:17.552Z,1.2
2023-01-30T19:04:16.315Z,1.5
2023-01-30T19:05:17.244Z,1.3
2023-01-30T19:06:17.565Z,1.5
2023-01-30T19:07:17.366Z,1.4
2023-01-30T19:08:18.689Z,1.3
2023-01-30T19:09:18.289Z,1.2
2023-01-30T19:10:19.077Z,1.3
2023-01-30T19:11:20.890Z,1.2
2023-01-30T19:12:19.345Z,1.2
2023-01-30T19:13:19.862Z,1.2
2023-01-30T19:14:20.172Z,1.4
2023-01-30T19:15:20.395Z,1.5
2023-01-30T19:16:21.030Z,1.4
2023-01-30T19:17:21.211Z,1.4
2023-01-30T19:18:21.446Z,1.5
2023-01-30T19:19:22.017Z,2.1
2023-01-30T19:20:23.951Z,1.4
2023-01-30T19:21:23.534Z,1.6
2023-01-30T19:22:22.578Z,1.8
2023-01-30T19:24:25.269Z,1.5
2023-01-30T19:25:25.172Z,1.4
2023-01-30T19:26:26.059Z,1.6
2023-01-30T19:27:26.306Z,1.2
2023-01-30T19:28:26.821Z,1.4
2023-01-30T19:29:27.033Z,1.3
2023-01-30T19:30:27.247Z,1.3
2023-01-30T19:31:27.640Z,1.4
2023-01-30T19:32:27.760Z,1.2
2023-01-30T19:33:28.863Z,2.5